createdAt,value
2023-02-13T00:04:05.003Z,4.62
2023-02-13T00:09:11.237Z,4.66
2023-02-13T00:14:14.680Z,4.72
2023-02-13T00:19:17.931Z,4.80
2023-02-13T00:24:21.200Z,4.86
2023-02-13T00:29:24.459Z,4.80
2023-02-13T00:34:28.849Z,4.77
2023-02-13T00:39:32.045Z,4.83
2023-02-13T00:44:35.431Z,4.85
2023-02-13T00:49:38.796Z,4.85
2023-02-13T00:54:42.017Z,4.70
2023-02-13T00:59:45.196Z,4.65
2023-02-13T01:04:48.787Z,4.64
2023-02-13T01:09:52.231Z,4.57
2023-02-13T01:14:56.372Z,4.51
2023-02-13T01:20:00.421Z,4.48
2023-02-13T01:25:04.415Z,4.44
2023-02-13T01:30:13.699Z,4.38
2023-02-13T01:35:17.087Z,4.38
2023-02-13T01:40:20.188Z,4.37
2023-02-13T01:45:23.300Z,4.40
2023-02-13T01:50:43.603Z,4.39
2023-02-13T01:55:55.603Z,4.29
2023-02-13T02:00:59.666Z,4.31
2023-02-13T02:06:07.467Z,4.35
2023-02-13T02:11:46.647Z,4.42
2023-02-13T02:16:51.023Z,4.39
2023-02-13T02:22:14.929Z,4.40
2023-02-13T02:27:27.170Z,4.40
2023-02-13T02:33:00.936Z,4.38
2023-02-13T02:38:26.442Z,4.41
2023-02-13T02:43:42.317Z,4.39
2023-02-13T02:49:21.952Z,4.42
2023-02-13T02:54:55.551Z,4.49
2023-02-13T03:00:18.813Z,4.61
2023-02-13T03:05:49.440Z,4.73
2023-02-13T03:11:11.540Z,4.88
2023-02-13T03:16:37.578Z,4.95
2023-02-13T03:22:08.480Z,5.06
2023-02-13T03:27:54.625Z,5.11
2023-02-13T03:33:27.973Z,5.07
2023-02-13T03:39:09.757Z,5.03
2023-02-13T03:44:23.860Z,4.95
2023-02-13T03:49:50.792Z,4.90
2023-02-13T03:55:22.725Z,4.90
2023-02-13T04:00:29.492Z,4.92
2023-02-13T04:05:40.410Z,4.93
2023-02-13T04:10:59.703Z,4.94
2023-02-13T04:16:37.800Z,5.00
2023-02-13T04:21:41.204Z,5.09
2023-02-13T04:26:46.027Z,5.19
2023-02-13T04:31:49.453Z,5.31
2023-02-13T04:36:53.604Z,5.40
2023-02-13T04:41:57.283Z,5.48
2023-02-13T04:47:00.451Z,5.48
2023-02-13T04:52:03.972Z,5.41
2023-02-13T04:57:07.373Z,5.38
2023-02-13T05:02:10.816Z,5.41
2023-02-13T05:07:14.023Z,5.46
2023-02-13T05:12:17.174Z,5.49
2023-02-13T05:17:20.443Z,5.57
2023-02-13T05:22:42.305Z,5.62
2023-02-13T05:27:45.962Z,5.59
2023-02-13T05:32:52.298Z,5.58
2023-02-13T05:37:55.550Z,5.53
2023-02-13T05:42:59.115Z,5.50
2023-02-13T05:48:02.479Z,5.48
2023-02-13T05:53:05.846Z,5.52
2023-02-13T05:58:09.737Z,5.57
2023-02-13T06:03:13.158Z,5.65
2023-02-13T06:08:17.602Z,5.62
2023-02-13T06:13:21.029Z,5.61
2023-02-13T06:18:25.129Z,5.60
2023-02-13T06:23:29.112Z,5.59
2023-02-13T06:28:33.501Z,5.53
2023-02-13T06:33:37.013Z,5.52
2023-02-13T06:38:41.001Z,5.58
2023-02-13T06:43:44.551Z,5.65
2023-02-13T06:48:47.999Z,5.71
2023-02-13T06:53:51.515Z,5.77
2023-02-13T06:58:54.920Z,5.77
2023-02-13T07:03:58.069Z,5.76
2023-02-13T07:09:02.548Z,5.79
2023-02-13T07:14:09.923Z,5.80
2023-02-13T07:19:13.093Z,5.74
2023-02-13T07:24:16.492Z,5.76
2023-02-13T07:29:19.793Z,5.83
2023-02-13T07:34:22.980Z,5.94
2023-02-13T07:39:26.179Z,5.98
2023-02-13T07:44:30.655Z,5.96
2023-02-13T07:49:35.228Z,5.97
2023-02-13T07:54:47.662Z,5.96
2023-02-13T07:59:51.776Z,5.93
2023-02-13T08:04:55.359Z,5.91
2023-02-13T08:10:17.737Z,6.04
2023-02-13T08:15:21.046Z,6.13
2023-02-13T08:20:24.568Z,6.12
2023-02-13T08:25:27.848Z,6.08
2023-02-13T08:30:31.502Z,6.01
2023-02-13T08:35:35.320Z,6.03
2023-02-13T08:40:39.849Z,6.15
2023-02-13T08:45:43.353Z,6.27
2023-02-13T08:50:47.227Z,6.30
2023-02-13T08:55:54.960Z,6.29
2023-02-13T09:00:58.400Z,6.23
2023-02-13T09:06:02.748Z,6.19
2023-02-13T09:11:09.341Z,6.24
2023-02-13T09:16:12.957Z,6.27
2023-02-13T09:21:16.979Z,6.45
2023-02-13T09:26:20.892Z,6.54
2023-02-13T09:31:24.590Z,6.59
2023-02-13T09:36:27.969Z,6.62
2023-02-13T09:41:37.850Z,6.70
2023-02-13T09:46:44.303Z,6.72
2023-02-13T09:51:54.465Z,6.83
2023-02-13T09:57:17.372Z,7.06
2023-02-13T10:02:41.698Z,7.19
2023-02-13T10:08:00.206Z,7.25
2023-02-13T10:13:15.776Z,7.33
2023-02-13T10:18:32.384Z,7.38
2023-02-13T10:23:48.414Z,7.23
2023-02-13T10:29:23.891Z,7.23
2023-02-13T10:34:32.095Z,7.33
2023-02-13T10:39:35.775Z,7.47
2023-02-13T10:44:41.971Z,7.57
2023-02-13T10:50:13.589Z,7.61
2023-02-13T10:55:42.478Z,7.54
2023-02-13T11:01:04.580Z,7.58
2023-02-13T11:06:14.733Z,7.62
2023-02-13T11:11:39.214Z,7.70
2023-02-13T11:16:50.576Z,7.78
2023-02-13T11:21:57.897Z,7.82
2023-02-13T11:27:09.498Z,7.87
2023-02-13T11:32:15.772Z,7.84
2023-02-13T11:37:21.308Z,7.76
2023-02-13T11:42:30.444Z,7.76
2023-02-13T11:47:42.647Z,7.79
2023-02-13T11:52:57.114Z,7.77
2023-02-13T11:58:03.738Z,7.75
2023-02-13T12:03:22.559Z,7.92
2023-02-13T12:08:25.914Z,8.04
2023-02-13T12:13:39.333Z,7.98
2023-02-13T12:18:46.681Z,8.00
2023-02-13T12:24:19.841Z,8.00
2023-02-13T12:29:33.104Z,7.93
2023-02-13T12:35:07.662Z,7.90
2023-02-13T12:40:24.825Z,7.89
2023-02-13T12:45:28.132Z,7.89
2023-02-13T12:50:42.115Z,7.91
2023-02-13T12:56:27.236Z,7.96
2023-02-13T13:01:56.902Z,7.83
2023-02-13T13:07:26.505Z,7.83
2023-02-13T13:12:54.456Z,7.69
2023-02-13T13:18:06.549Z,7.55
2023-02-13T13:23:25.034Z,7.50
2023-02-13T13:28:46.364Z,7.54
2023-02-13T13:33:50.041Z,7.60
2023-02-13T13:39:24.950Z,7.68
2023-02-13T13:44:43.727Z,7.75
2023-02-13T13:49:58.921Z,7.78
2023-02-13T13:55:05.866Z,7.83
2023-02-13T14:00:10.527Z,7.76
2023-02-13T14:05:56.065Z,7.74
2023-02-13T14:11:03.221Z,7.77
2023-02-13T14:16:11.740Z,7.79
2023-02-13T14:21:23.077Z,7.81
2023-02-13T14:26:33.511Z,7.73
2023-02-13T14:31:40.705Z,7.69
2023-02-13T14:36:48.227Z,7.65
2023-02-13T14:41:55.987Z,7.69
2023-02-13T14:47:11.636Z,7.66
2023-02-13T14:52:35.623Z,7.56
2023-02-13T14:57:53.252Z,7.56
2023-02-13T15:03:06.385Z,7.61
2023-02-13T15:08:18.110Z,7.58
2023-02-13T15:13:34.688Z,7.57
2023-02-13T15:18:46.391Z,7.51
2023-02-13T15:23:55.937Z,7.45
2023-02-13T15:29:07.404Z,7.46
2023-02-13T15:34:34.557Z,7.43
2023-02-13T15:39:39.614Z,7.45
2023-02-13T15:44:48.988Z,7.42
2023-02-13T15:49:52.756Z,7.33
2023-02-13T15:54:58.115Z,7.29
2023-02-13T16:00:03.217Z,7.22
2023-02-13T16:05:26.489Z,7.14
2023-02-13T16:10:42.464Z,7.11
2023-02-13T16:15:48.107Z,7.20
2023-02-13T16:20:57.668Z,7.19
2023-02-13T16:26:08.638Z,7.13
2023-02-13T16:31:17.687Z,7.10
2023-02-13T16:36:31.372Z,7.06
2023-02-13T16:41:35.478Z,6.96
2023-02-13T16:46:43.021Z,6.84
2023-02-13T16:52:21.715Z,6.76
2023-02-13T16:57:32.022Z,6.77
2023-02-13T17:02:41.104Z,6.89
2023-02-13T17:07:49.369Z,6.96
2023-02-13T17:12:56.161Z,6.85
2023-02-13T17:18:00.517Z,6.82
2023-02-13T17:23:08.493Z,6.82
2023-02-13T17:28:19.154Z,6.81
2023-02-13T17:33:26.811Z,6.78
2023-02-13T17:38:31.940Z,6.77
2023-02-13T17:43:37.228Z,6.71
2023-02-13T17:48:44.212Z,6.65
2023-02-13T17:53:48.399Z,6.76
2023-02-13T17:58:55.112Z,6.87
2023-02-13T18:03:59.156Z,6.88
2023-02-13T18:09:04.433Z,6.82
2023-02-13T18:14:08.788Z,6.81
2023-02-13T18:19:14.548Z,6.73
2023-02-13T18:24:18.820Z,6.65
2023-02-13T18:29:23.611Z,6.59
2023-02-13T18:34:29.909Z,6.56
2023-02-13T18:39:36.302Z,6.62
2023-02-13T18:44:41.745Z,6.72
2023-02-13T18:49:47.049Z,6.76
2023-02-13T18:54:51.873Z,6.76
2023-02-13T18:59:55.970Z,6.70
2023-02-13T19:05:00.019Z,6.72
2023-02-13T19:10:05.977Z,6.65
2023-02-13T19:15:09.984Z,6.64
2023-02-13T19:20:16.655Z,6.64
2023-02-13T19:25:22.550Z,6.60
2023-02-13T19:30:26.917Z,6.60
2023-02-13T19:35:31.306Z,6.59
2023-02-13T19:40:35.882Z,6.56
2023-02-13T19:45:40.544Z,6.58
2023-02-13T19:50:46.094Z,6.68
2023-02-13T19:55:49.871Z,6.76
2023-02-13T20:00:55.740Z,6.75
2023-02-13T20:06:03.780Z,6.68
2023-02-13T20:11:10.320Z,6.56
2023-02-13T20:16:17.476Z,6.46
2023-02-13T20:21:21.741Z,6.43
2023-02-13T20:26:27.708Z,6.47
2023-02-13T20:31:34.782Z,6.50
2023-02-13T20:36:38.946Z,6.57
2023-02-13T20:41:48.644Z,6.56
2023-02-13T20:46:52.476Z,6.44
2023-02-13T20:51:56.253Z,6.48
2023-02-13T20:56:59.695Z,6.58
2023-02-13T21:02:03.275Z,6.62
2023-02-13T21:07:09.637Z,6.62
2023-02-13T21:12:13.547Z,6.61
2023-02-13T21:17:17.036Z,6.60
2023-02-13T21:22:21.282Z,6.61
2023-02-13T21:27:24.948Z,6.61
2023-02-13T21:32:28.707Z,6.57
2023-02-13T21:37:32.839Z,6.48
2023-02-13T21:42:36.693Z,6.34
2023-02-13T21:47:40.313Z,6.21
2023-02-13T21:52:43.807Z,6.17
2023-02-13T21:57:47.121Z,6.14
2023-02-13T22:02:50.510Z,6.15
2023-02-13T22:08:12.958Z,6.22
2023-02-13T22:13:16.551Z,6.34
2023-02-13T22:18:19.978Z,6.41
2023-02-13T22:23:23.255Z,6.47
2023-02-13T22:28:27.982Z,6.43
2023-02-13T22:33:31.242Z,6.38
2023-02-13T22:38:37.152Z,6.41
2023-02-13T22:43:41.304Z,6.45
2023-02-13T22:48:48.187Z,6.47
2023-02-13T22:53:56.396Z,6.42
2023-02-13T22:58:59.706Z,6.40
2023-02-13T23:04:03.297Z,6.37
2023-02-13T23:09:08.369Z,6.34
2023-02-13T23:14:13.231Z,6.31
2023-02-13T23:19:16.823Z,6.37
2023-02-13T23:24:20.105Z,6.43
2023-02-13T23:29:24.258Z,6.44
2023-02-13T23:34:27.935Z,6.47
2023-02-13T23:39:31.430Z,6.49
2023-02-13T23:44:34.814Z,6.53
2023-02-13T23:49:38.341Z,6.47
2023-02-13T23:54:42.001Z,6.37
2023-02-13T23:59:45.498Z,6.39
